createdAt,value
2017-01-26T14:50:47.312Z,21.14
2017-01-26T14:51:07.686Z,21.17
2017-01-26T14:51:28.095Z,20.91
2017-01-26T14:51:47.837Z,20.59
2017-01-26T14:52:08.302Z,20.57
2017-01-26T14:52:29.004Z,20.51
2017-01-26T14:52:49.885Z,20.53
2017-01-26T14:53:10.125Z,20.27
2017-01-26T14:53:29.656Z,20.12
2017-01-26T14:53:51.392Z,20.23
2017-01-26T14:54:13.077Z,20.01
2017-01-26T14:54:32.848Z,20.03
2017-01-26T14:54:52.648Z,20.08
2017-01-26T14:55:13.058Z,20
2017-01-26T14:55:32.831Z,19.94
2017-01-26T14:55:53.233Z,20.06
2017-01-26T14:56:12.986Z,19.87
2017-01-26T14:56:32.769Z,19.88
2017-01-26T14:56:53.227Z,19.88
2017-01-26T14:57:13.717Z,19.93
2017-01-26T14:57:33.010Z,19.88
2017-01-26T14:57:53.459Z,19.86
2017-01-26T14:58:13.338Z,19.94
2017-01-26T14:58:33.136Z,19.88
2017-01-26T14:58:53.164Z,19.95
2017-01-26T14:59:13.635Z,19.95
2017-01-26T14:59:33.547Z,20.01
2017-01-26T14:59:54.002Z,19.87
2017-01-26T15:00:13.744Z,19.83
2017-01-26T15:00:34.180Z,19.8
2017-01-26T15:00:54.546Z,19.88
2017-01-26T15:01:14.309Z,19.86
2017-01-26T15:01:34.059Z,20
2017-01-26T15:01:54.548Z,19.91
2017-01-26T15:02:14.381Z,19.87
2017-01-26T15:02:34.162Z,19.75
2017-01-26T15:02:54.616Z,19.6
2017-01-26T15:03:14.371Z,19.65
2017-01-26T15:03:34.157Z,19.54
2017-01-26T15:03:54.546Z,19.6
2017-01-26T15:04:13.640Z,19.46
2017-01-26T15:04:33.414Z,19.65
2017-01-26T15:04:53.814Z,19.58
2017-01-26T15:05:14.216Z,19.42
2017-01-26T15:05:34.634Z,19.46
2017-01-26T15:05:54.363Z,19.53
2017-01-26T15:06:14.159Z,19.51
2017-01-26T15:06:33.962Z,19.61
2017-01-26T15:06:54.364Z,19.53
2017-01-26T15:07:14.284Z,19.64
2017-01-26T15:07:33.492Z,19.57
2017-01-26T15:07:53.970Z,19.58
2017-01-26T15:08:14.403Z,19.46
2017-01-26T15:08:34.160Z,19.53
2017-01-26T15:08:54.606Z,19.55
2017-01-26T15:09:13.719Z,19.45
2017-01-26T15:09:33.303Z,19.39
2017-01-26T15:09:53.747Z,19.43
2017-01-26T15:10:14.138Z,19.58
2017-01-26T15:10:34.548Z,19.48
2017-01-26T15:10:54.985Z,19.27
2017-01-26T15:11:14.770Z,19.42
2017-01-26T15:11:35.192Z,19.53
2017-01-26T15:11:55.673Z,19.45
2017-01-26T15:12:15.469Z,19.35
2017-01-26T15:12:35.195Z,19.36
2017-01-26T15:12:54.972Z,19.46
2017-01-26T15:13:14.700Z,19.39
2017-01-26T15:13:35.094Z,19.31
2017-01-26T15:13:55.515Z,19.4
2017-01-26T15:14:13.984Z,19.5
2017-01-26T15:14:33.081Z,19.51
2017-01-26T15:14:52.861Z,19.53
2017-01-26T15:15:13.285Z,19.51
2017-01-26T15:15:33.023Z,19.55
2017-01-26T15:15:52.178Z,19.51
2017-01-26T15:16:11.918Z,19.54
2017-01-26T15:16:31.681Z,19.45
2017-01-26T15:16:51.421Z,19.55
2017-01-26T15:17:11.822Z,19.58
2017-01-26T15:17:31.565Z,19.58
2017-01-26T15:17:51.987Z,19.55
2017-01-26T15:18:12.415Z,19.6
2017-01-26T15:18:32.824Z,19.63
2017-01-26T15:18:53.289Z,19.61
2017-01-26T15:19:13.656Z,19.63
2017-01-26T15:19:34.109Z,19.54
2017-01-26T15:19:54.548Z,19.65
2017-01-26T15:20:14.367Z,19.6
2017-01-26T15:20:34.982Z,19.64
2017-01-26T15:20:55.386Z,19.64
2017-01-26T15:21:15.798Z,19.65
2017-01-26T15:21:36.200Z,19.68
2017-01-26T15:21:56.621Z,19.63
2017-01-26T15:22:16.380Z,19.72
2017-01-26T15:22:36.793Z,19.72
2017-01-26T15:22:57.216Z,19.79
2017-01-26T15:23:17.650Z,19.79
2017-01-26T15:23:37.450Z,19.8
2017-01-26T15:23:57.223Z,19.82
2017-01-26T15:24:17.821Z,19.83
2017-01-26T15:24:37.141Z,19.79
2017-01-26T15:24:57.549Z,19.78
2017-01-26T15:25:17.920Z,19.69
2017-01-26T15:25:37.656Z,19.9
2017-01-26T15:25:57.413Z,19.88
2017-01-26T15:26:17.820Z,19.75
2017-01-26T15:26:37.557Z,19.88
2017-01-26T15:26:57.326Z,19.86
2017-01-26T15:27:17.700Z,19.86
2017-01-26T15:27:38.135Z,19.88
2017-01-26T15:27:58.569Z,19.88
2017-01-26T15:28:18.975Z,19.88
2017-01-26T15:28:38.806Z,19.94
2017-01-26T15:28:58.563Z,19.93
2017-01-26T15:29:18.987Z,19.98
2017-01-26T15:29:39.405Z,20
2017-01-26T15:29:59.783Z,20.01
2017-01-26T15:30:19.121Z,20.03
2017-01-26T15:30:39.524Z,19.94
2017-01-26T15:30:59.915Z,19.94
2017-01-26T15:31:20.316Z,19.97
2017-01-26T15:31:40.111Z,19.91
2017-01-26T15:32:00.546Z,19.88
2017-01-26T15:32:19.713Z,19.9
2017-01-26T15:32:39.521Z,19.87
2017-01-26T15:32:59.300Z,20
2017-01-26T15:33:19.869Z,20
2017-01-26T15:33:40.286Z,19.93
2017-01-26T15:34:00.062Z,20
2017-01-26T15:34:18.524Z,20.1
2017-01-26T15:34:38.286Z,20.09
2017-01-26T15:34:58.662Z,20.06
2017-01-26T15:35:18.392Z,20.12
2017-01-26T15:35:38.152Z,20.06
2017-01-26T15:35:58.538Z,20.06
2017-01-26T15:36:18.323Z,20.09
2017-01-26T15:36:38.101Z,20.08
2017-01-26T15:36:58.484Z,20.03
2017-01-26T15:37:18.877Z,20.06
2017-01-26T15:37:39.257Z,20.08
2017-01-26T15:37:58.386Z,20.05
2017-01-26T15:38:18.325Z,19.91
2017-01-26T15:38:38.088Z,19.91
2017-01-26T15:38:58.570Z,19.95
2017-01-26T15:39:19.170Z,19.94
2017-01-26T15:39:40.743Z,19.93
2017-01-26T15:40:01.278Z,19.98
2017-01-26T15:40:21.706Z,19.87
2017-01-26T15:40:41.412Z,19.95
2017-01-26T15:41:01.838Z,19.9
2017-01-26T15:41:21.597Z,19.91
2017-01-26T15:41:42.021Z,19.91
2017-01-26T15:42:02.540Z,19.94
2017-01-26T15:42:22.349Z,19.95
2017-01-26T15:42:42.753Z,19.93
2017-01-26T15:43:03.279Z,20.05
2017-01-26T15:43:23.072Z,20
2017-01-26T15:43:43.530Z,20.05
2017-01-26T15:44:03.680Z,20.03
2017-01-26T15:44:24.264Z,19.95
2017-01-26T15:44:44.764Z,20.09
2017-01-26T15:45:04.551Z,19.98
2017-01-26T15:45:24.355Z,19.95
2017-01-26T15:45:44.746Z,19.91
2017-01-26T15:46:04.473Z,20.01
2017-01-26T15:46:24.831Z,20.03
2017-01-26T15:46:45.245Z,20.03
2017-01-26T15:47:05.666Z,20.03
2017-01-26T15:47:25.424Z,19.87
2017-01-26T15:47:45.820Z,19.98
2017-01-26T15:48:06.260Z,20
2017-01-26T15:48:26.717Z,20.05
2017-01-26T15:48:46.505Z,20.1
2017-01-26T15:49:06.923Z,20.08
2017-01-26T15:49:27.306Z,20.09
2017-01-26T15:49:47.178Z,20.05
2017-01-26T15:50:07.619Z,20.06
2017-01-26T15:50:28.061Z,20.05
2017-01-26T15:50:48.508Z,20.09
2017-01-26T15:51:09.152Z,20.09
2017-01-26T15:51:28.920Z,20.15
2017-01-26T15:51:49.380Z,20.1
2017-01-26T15:52:09.820Z,20.09
2017-01-26T15:52:29.612Z,20.12
2017-01-26T15:52:50.032Z,20.28
2017-01-26T15:53:10.444Z,20.09
2017-01-26T15:53:29.589Z,20.24
2017-01-26T15:53:50.093Z,20.23
2017-01-26T15:54:09.870Z,20.1
2017-01-26T15:54:29.716Z,20.09
2017-01-26T15:54:50.122Z,20.12
2017-01-26T15:55:10.620Z,20.15
2017-01-26T15:55:29.881Z,20.09
2017-01-26T15:55:49.185Z,20.1
2017-01-26T15:56:09.735Z,20.03
2017-01-26T15:56:30.155Z,20.09
2017-01-26T15:56:49.894Z,20.06
2017-01-26T15:57:10.337Z,20.01
2017-01-26T15:57:29.452Z,20.01
2017-01-26T15:57:49.238Z,20.03
2017-01-26T15:58:09.661Z,20
2017-01-26T15:58:30.051Z,20.01
2017-01-26T15:58:50.432Z,20.03
2017-01-26T15:59:10.193Z,20.05
2017-01-26T15:59:29.921Z,20.08
2017-01-26T15:59:49.699Z,20.01
2017-01-26T16:00:08.829Z,20.06
2017-01-26T16:00:29.326Z,20.03
2017-01-26T16:00:49.087Z,20.08
2017-01-26T16:01:09.647Z,20.06
2017-01-26T16:01:29.497Z,20.09
2017-01-26T16:01:48.636Z,20.1
2017-01-26T16:02:08.388Z,20.12
2017-01-26T16:02:28.186Z,20.08
2017-01-26T16:02:48.715Z,20.09
2017-01-26T16:03:09.125Z,20.05
2017-01-26T16:03:29.575Z,20.13
2017-01-26T16:03:50.030Z,20.03
2017-01-26T16:04:09.851Z,20.09
2017-01-26T16:04:29.594Z,20.03
2017-01-26T16:04:49.364Z,20.09
2017-01-26T16:05:09.232Z,20.08
2017-01-26T16:05:29.854Z,20.13
2017-01-26T16:05:50.403Z,20.12
2017-01-26T16:06:10.788Z,20.1
2017-01-26T16:06:31.307Z,20.19
2017-01-26T16:06:51.917Z,20.15
2017-01-26T16:07:12.801Z,20.24
2017-01-26T16:07:33.229Z,20.15
2017-01-26T16:07:53.671Z,20.26
2017-01-26T16:08:14.302Z,20.19
2017-01-26T16:08:34.748Z,20.3
2017-01-26T16:08:55.243Z,20.28
2017-01-26T16:09:15.750Z,20.28
2017-01-26T16:09:36.208Z,20.28
2017-01-26T16:09:56.039Z,20.2
2017-01-26T16:10:30.220Z,20.26
2017-01-26T16:10:50.030Z,20.28
2017-01-26T16:11:09.800Z,20.27
2017-01-26T16:11:29.658Z,20.31
2017-01-26T16:11:50.163Z,20.33
2017-01-26T16:12:10.612Z,20.28
2017-01-26T16:12:31.103Z,20.26
2017-01-26T16:12:51.504Z,20.3
2017-01-26T16:13:11.345Z,20.35
2017-01-26T16:13:31.957Z,20.33
2017-01-26T16:13:51.716Z,20.38
2017-01-26T16:14:11.497Z,20.33
2017-01-26T16:14:31.953Z,20.3
2017-01-26T16:14:52.448Z,20.28
2017-01-26T16:15:11.545Z,20.24
2017-01-26T16:15:30.672Z,20.26
2017-01-26T16:15:51.090Z,20.3
2017-01-26T16:16:11.526Z,20.27
2017-01-26T16:16:31.264Z,20.35
2017-01-26T16:16:51.622Z,20.31
2017-01-26T16:17:12.051Z,20.31
2017-01-26T16:17:32.446Z,20.43
2017-01-26T16:17:52.835Z,20.31
2017-01-26T16:18:13.251Z,20.35
2017-01-26T16:18:33.017Z,20.33
2017-01-26T16:18:52.174Z,20.42
2017-01-26T16:19:12.559Z,20.5
2017-01-26T16:19:32.993Z,20.5
2017-01-26T16:19:53.422Z,20.4
2017-01-26T16:20:12.595Z,20.46
2017-01-26T16:20:32.997Z,20.37
2017-01-26T16:20:53.398Z,20.37
2017-01-26T16:21:13.892Z,20.38
2017-01-26T16:21:34.489Z,20.3
2017-01-26T16:21:55.089Z,20.38
2017-01-26T16:22:14.284Z,20.37
2017-01-26T16:22:34.045Z,20.38
2017-01-26T16:22:54.456Z,20.37
2017-01-26T16:23:14.199Z,20.46
2017-01-26T16:23:34.644Z,20.38
2017-01-26T16:23:55.082Z,20.31
2017-01-26T16:24:15.565Z,20.35
2017-01-26T16:24:35.390Z,20.28
2017-01-26T16:24:55.185Z,20.27
2017-01-26T16:25:14.998Z,20.35
2017-01-26T16:25:35.378Z,20.3
2017-01-26T16:25:55.867Z,20.33
2017-01-26T16:26:16.513Z,20.37
2017-01-26T16:26:36.320Z,20.34
2017-01-26T16:26:56.790Z,20.38
2017-01-26T16:27:16.598Z,20.4
2017-01-26T16:27:36.354Z,20.34
2017-01-26T16:27:56.109Z,20.4
2017-01-26T16:28:15.907Z,20.38
2017-01-26T16:28:35.015Z,20.43
2017-01-26T16:28:55.438Z,20.38
2017-01-26T16:29:15.841Z,20.47
2017-01-26T16:29:36.237Z,20.43
2017-01-26T16:29:56.641Z,20.5
2017-01-26T16:30:16.397Z,20.46
2017-01-26T16:30:36.823Z,20.43
2017-01-26T16:30:56.581Z,20.47
2017-01-26T16:31:16.350Z,20.43
2017-01-26T16:31:36.165Z,20.54
2017-01-26T16:31:55.317Z,20.53
2017-01-26T16:32:15.130Z,20.54
2017-01-26T16:32:34.956Z,20.54
2017-01-26T16:32:55.414Z,20.5
2017-01-26T16:33:15.247Z,20.4
2017-01-26T16:33:35.108Z,20.43
2017-01-26T16:33:55.562Z,20.54
2017-01-26T16:34:15.300Z,20.49
2017-01-26T16:34:34.495Z,20.57
2017-01-26T16:34:55.023Z,20.62
2017-01-26T16:35:15.612Z,20.61
2017-01-26T16:35:36.075Z,20.61
2017-01-26T16:35:56.458Z,20.64
2017-01-26T16:36:16.267Z,20.57
2017-01-26T16:36:37.467Z,20.64
2017-01-26T16:36:58.016Z,20.69
2017-01-26T16:37:18.592Z,20.65
2017-01-26T16:37:39.142Z,20.74
2017-01-26T16:37:59.599Z,20.65
2017-01-26T16:38:18.816Z,20.62
2017-01-26T16:38:38.626Z,20.76
2017-01-26T16:38:58.516Z,20.72
2017-01-26T16:39:19.113Z,20.79
2017-01-26T16:39:39.560Z,20.8
2017-01-26T16:40:00.182Z,20.82
2017-01-26T16:40:20.625Z,20.79
2017-01-26T16:40:41.108Z,20.84
2017-01-26T16:41:00.925Z,20.86
2017-01-26T16:41:20.715Z,20.91
2017-01-26T16:41:41.247Z,20.93
2017-01-26T16:42:01.787Z,20.86
2017-01-26T16:42:22.212Z,20.9
2017-01-26T16:42:42.640Z,20.87
2017-01-26T16:43:02.430Z,20.91
2017-01-26T16:43:56.505Z,20.96
2017-01-26T16:44:16.964Z,20.98
2017-01-26T16:44:37.498Z,21.08
2017-01-26T16:44:57.296Z,21.05
2017-01-26T16:45:17.797Z,21.02
2017-01-26T16:45:37.001Z,20.93
2017-01-26T16:45:58.120Z,20.89
2017-01-26T16:46:18.656Z,20.91
2017-01-26T16:46:37.876Z,20.9
2017-01-26T16:46:57.090Z,20.91
2017-01-26T16:47:16.947Z,20.94
2017-01-26T16:47:37.683Z,21.04
2017-01-26T16:47:58.210Z,21.02
2017-01-26T16:48:18.235Z,21.01
2017-01-26T16:48:38.797Z,21.08
2017-01-26T16:48:59.325Z,21.05
2017-01-26T16:49:19.551Z,21.06
2017-01-26T16:49:40.101Z,21.11
2017-01-26T16:49:59.278Z,21.16
2017-01-26T16:50:19.180Z,21.12
2017-01-26T16:50:38.947Z,21.05
2017-01-26T16:50:59.457Z,21.14
2017-01-26T16:51:19.894Z,21.06
2017-01-26T16:51:40.395Z,21.09
2017-01-26T16:52:00.419Z,21.05
2017-01-26T16:52:20.799Z,21.05
2017-01-26T16:52:40.179Z,21.11
2017-01-26T16:53:00.651Z,21.11
2017-01-26T16:53:20.467Z,21.08
2017-01-26T16:53:40.281Z,21.21
2017-01-26T16:54:00.746Z,21.2
2017-01-26T16:54:20.547Z,21.12
2017-01-26T16:54:40.373Z,21.14
2017-01-26T16:55:00.808Z,21.2
2017-01-26T16:55:20.911Z,21.23
2017-01-26T16:55:40.670Z,21.3
2017-01-26T16:56:00.459Z,21.26
2017-01-26T16:56:20.909Z,21.33
2017-01-26T16:56:40.723Z,21.21
2017-01-26T16:57:00.479Z,21.26
2017-01-26T16:57:20.890Z,21.26
2017-01-26T16:57:40.681Z,21.16
2017-01-26T16:58:00.461Z,21.16
2017-01-26T16:58:19.669Z,21.16
2017-01-26T16:58:40.131Z,21.06
2017-01-26T16:58:59.911Z,21.08
2017-01-26T16:59:19.667Z,21.05
2017-01-26T16:59:40.056Z,21.2
2017-01-26T17:00:00.487Z,21.11
2017-01-26T17:00:19.631Z,21.14
2017-01-26T17:00:40.081Z,21.16
2017-01-26T17:01:00.534Z,21.08
2017-01-26T17:01:21.549Z,21.12
2017-01-26T17:01:42.068Z,21.05
2017-01-26T17:02:02.347Z,21.16
2017-01-26T17:02:21.695Z,21.16
2017-01-26T17:02:42.269Z,21.16
2017-01-26T17:03:02.724Z,21.06
2017-01-26T17:03:23.127Z,21.19
2017-01-26T17:03:43.535Z,21.14
2017-01-26T17:04:03.379Z,21.16
2017-01-26T17:04:23.919Z,21.12
2017-01-26T17:04:44.365Z,21.04
2017-01-26T17:05:04.319Z,21.17
2017-01-26T17:05:23.443Z,21.24
2017-01-26T17:05:43.855Z,21.2
2017-01-26T17:06:04.262Z,21.23
2017-01-26T17:06:24.023Z,21.24
2017-01-26T17:06:44.464Z,21.26
2017-01-26T17:07:03.615Z,21.27
2017-01-26T17:07:24.004Z,21.31
2017-01-26T17:07:44.397Z,21.31
2017-01-26T17:08:04.750Z,21.21
2017-01-26T17:08:23.336Z,21.23
2017-01-26T17:08:43.177Z,21.26
2017-01-26T17:09:03.840Z,21.36
2017-01-26T17:09:23.661Z,21.39
2017-01-26T17:09:44.095Z,21.42
2017-01-26T17:10:02.639Z,21.44
2017-01-26T17:10:23.079Z,21.45
2017-01-26T17:10:43.439Z,21.48
2017-01-26T17:11:04.665Z,21.49
2017-01-26T17:11:25.835Z,21.51
2017-01-26T17:11:46.251Z,21.61
2017-01-26T17:12:06.107Z,21.57
2017-01-26T17:12:25.320Z,21.64
2017-01-26T17:12:45.827Z,21.57
2017-01-26T17:13:05.623Z,21.67
2017-01-26T17:13:25.429Z,21.72
2017-01-26T17:13:45.875Z,21.7
2017-01-26T17:14:06.365Z,21.76
2017-01-26T17:14:26.841Z,21.76
2017-01-26T17:14:46.689Z,21.78
2017-01-26T17:15:20.861Z,21.97
2017-01-26T17:15:41.259Z,21.92
2017-01-26T17:16:01.753Z,22
2017-01-26T17:16:22.217Z,22.04
2017-01-26T17:16:42.120Z,22.04
2017-01-26T17:17:01.884Z,22.05
2017-01-26T17:17:20.990Z,22.02
2017-01-26T17:17:55.165Z,22.1
2017-01-26T17:18:14.943Z,22.02
2017-01-26T17:18:35.363Z,22.04
2017-01-26T17:18:55.786Z,21.97
2017-01-26T17:19:14.307Z,21.89
2017-01-26T17:19:34.743Z,21.89
2017-01-26T17:19:55.165Z,21.91
2017-01-26T17:20:14.287Z,21.94
2017-01-26T17:20:34.805Z,21.78
2017-01-26T17:20:55.258Z,21.91
2017-01-26T17:21:14.374Z,21.84
2017-01-26T17:21:34.747Z,21.97
2017-01-26T17:21:55.234Z,21.91
2017-01-26T17:22:29.397Z,21.94
2017-01-26T17:22:49.225Z,21.84
2017-01-26T17:23:09.653Z,21.82
2017-01-26T17:23:28.140Z,21.95
2017-01-26T17:23:47.303Z,21.86
2017-01-26T17:24:07.751Z,21.89
2017-01-26T17:24:27.507Z,21.81
2017-01-26T17:24:47.310Z,21.84
2017-01-26T17:25:07.712Z,21.89
2017-01-26T17:25:28.074Z,21.94
2017-01-26T17:25:48.553Z,22
2017-01-26T17:26:08.973Z,21.98
2017-01-26T17:26:29.475Z,21.92
2017-01-26T17:26:50.062Z,21.81
2017-01-26T17:27:10.035Z,21.81
2017-01-26T17:27:30.426Z,21.79
2017-01-26T17:27:50.238Z,21.74
2017-01-26T17:28:10.772Z,21.69
2017-01-26T17:28:31.191Z,21.66
2017-01-26T17:28:50.975Z,21.7
2017-01-26T17:29:11.360Z,21.59
2017-01-26T17:29:31.869Z,21.61
2017-01-26T17:29:52.284Z,21.66
2017-01-26T17:30:12.007Z,21.74
2017-01-26T17:30:31.760Z,21.79
2017-01-26T17:30:52.282Z,21.78
2017-01-26T17:31:12.674Z,21.7
2017-01-26T17:31:33.109Z,21.6
2017-01-26T17:31:53.593Z,21.6
2017-01-26T17:32:14.090Z,21.59
2017-01-26T17:32:34.512Z,21.57
2017-01-26T17:32:54.358Z,21.53
2017-01-26T17:33:14.139Z,21.64
2017-01-26T17:33:33.949Z,21.64
2017-01-26T17:33:53.749Z,21.59
2017-01-26T17:34:14.197Z,21.56
2017-01-26T17:34:35.325Z,21.48
2017-01-26T17:34:55.805Z,21.48
2017-01-26T17:35:29.988Z,21.64
2017-01-26T17:35:50.446Z,21.59
2017-01-26T17:36:11.589Z,21.61
2017-01-26T17:36:31.377Z,21.67
2017-01-26T17:36:51.190Z,21.6
2017-01-26T17:37:11.040Z,21.56
2017-01-26T17:37:31.567Z,21.56
2017-01-26T17:37:52.777Z,21.72
2017-01-26T17:38:13.198Z,21.7
2017-01-26T17:38:33.489Z,21.7
2017-01-26T17:38:53.252Z,21.61
2017-01-26T17:39:13.713Z,21.72
2017-01-26T17:39:33.533Z,21.6
2017-01-26T17:39:54.241Z,21.74
2017-01-26T17:40:14.296Z,21.64
2017-01-26T17:40:35.198Z,21.75
2017-01-26T17:40:55.837Z,21.76
2017-01-26T17:41:15.714Z,21.75
2017-01-26T17:41:36.173Z,21.72
2017-01-26T17:41:56.640Z,21.72
2017-01-26T17:42:16.829Z,21.78
2017-01-26T17:42:36.701Z,21.81
2017-01-26T17:42:57.270Z,21.82
2017-01-26T17:43:17.738Z,21.79
2017-01-26T17:43:38.266Z,21.7
2017-01-26T17:43:58.693Z,21.82
2017-01-26T17:44:19.466Z,21.76
2017-01-26T17:44:38.620Z,21.78
2017-01-26T17:44:58.708Z,21.84
2017-01-26T17:45:19.659Z,21.76
2017-01-26T17:45:40.140Z,21.75
2017-01-26T17:46:00.665Z,21.76
2017-01-26T17:46:20.560Z,21.78
2017-01-26T17:46:40.345Z,21.76
2017-01-26T17:47:00.767Z,21.85
2017-01-26T17:47:20.673Z,21.78
2017-01-26T17:47:40.497Z,21.76
2017-01-26T17:48:00.345Z,21.84
2017-01-26T17:48:20.963Z,21.76
2017-01-26T17:48:40.193Z,21.7
2017-01-26T17:49:00.667Z,21.75
2017-01-26T17:49:21.742Z,21.85
2017-01-26T17:49:42.263Z,21.91
2017-01-26T17:50:02.702Z,21.79
2017-01-26T17:50:21.237Z,21.85
2017-01-26T17:50:55.442Z,21.94
2017-01-26T17:51:15.309Z,21.91
2017-01-26T17:51:35.229Z,21.94
2017-01-26T17:51:55.053Z,22.01
2017-01-26T17:52:15.935Z,22.16
2017-01-26T17:52:36.489Z,22.16
2017-01-26T17:52:56.229Z,22.15
2017-01-26T17:53:16.673Z,22.22
2017-01-26T17:53:37.215Z,22.22
2017-01-26T17:53:57.067Z,22.24
2017-01-26T17:54:18.066Z,22.23
2017-01-26T17:54:38.560Z,22.31
2017-01-26T17:54:58.433Z,22.3
2017-01-26T17:55:19.149Z,22.3
2017-01-26T17:55:39.617Z,22.23
2017-01-26T17:56:00.128Z,22.32
2017-01-26T17:56:20.681Z,22.3
2017-01-26T17:56:40.691Z,22.28
2017-01-26T17:57:01.831Z,22.23
2017-01-26T17:57:21.200Z,22.37
2017-01-26T17:57:41.654Z,22.38
2017-01-26T17:58:02.270Z,22.37
2017-01-26T17:58:22.140Z,22.35
2017-01-26T17:58:42.618Z,22.19
2017-01-26T17:59:03.107Z,22.3
2017-01-26T17:59:23.529Z,22.31
2017-01-26T17:59:44.039Z,22.31
2017-01-26T18:00:04.605Z,22.3
2017-01-26T18:00:24.408Z,22.37
2017-01-26T18:00:45.010Z,22.35
2017-01-26T18:01:05.684Z,22.44
2017-01-26T18:01:26.154Z,22.32
2017-01-26T18:01:46.697Z,22.32
2017-01-26T18:02:06.518Z,22.38
2017-01-26T18:02:26.327Z,22.39
2017-01-26T18:02:46.732Z,22.37
2017-01-26T18:03:13.436Z,22.39
2017-01-26T18:03:33.963Z,22.3
2017-01-26T18:03:54.596Z,22.37
2017-01-26T18:04:14.432Z,22.35
2017-01-26T18:04:34.846Z,22.28
2017-01-26T18:04:55.349Z,22.35
2017-01-26T18:05:15.806Z,22.35
2017-01-26T18:05:36.346Z,22.31
2017-01-26T18:05:56.160Z,22.35
2017-01-26T18:06:16.649Z,22.38
2017-01-26T18:06:37.134Z,22.38
2017-01-26T18:06:56.916Z,22.41
2017-01-26T18:07:16.743Z,22.38
2017-01-26T18:07:37.232Z,22.34
2017-01-26T18:07:56.994Z,22.39
2017-01-26T18:08:16.831Z,22.47
2017-01-26T18:08:37.304Z,22.39
2017-01-26T18:08:57.064Z,22.41
2017-01-26T18:09:17.754Z,22.47
2017-01-26T18:09:40.312Z,22.39
2017-01-26T18:10:00.953Z,22.46
2017-01-26T18:10:20.889Z,22.53
2017-01-26T18:10:41.542Z,22.42
2017-01-26T18:11:01.320Z,22.49
2017-01-26T18:11:21.190Z,22.62
2017-01-26T18:11:41.033Z,22.52
2017-01-26T18:12:01.513Z,22.52
2017-01-26T18:12:21.482Z,22.57
2017-01-26T18:12:41.385Z,22.52
2017-01-26T18:13:01.810Z,22.53
2017-01-26T18:13:21.654Z,22.56
2017-01-26T18:13:42.122Z,22.49
2017-01-26T18:14:02.614Z,22.53
2017-01-26T18:14:23.341Z,22.54
2017-01-26T18:14:43.843Z,22.46
2017-01-26T18:15:04.273Z,22.44
2017-01-26T18:15:24.123Z,22.49
2017-01-26T18:15:44.613Z,22.44
2017-01-26T18:16:05.117Z,22.46
2017-01-26T18:16:24.335Z,22.44
2017-01-26T18:16:44.798Z,22.46
2017-01-26T18:17:05.658Z,22.47
2017-01-26T18:17:24.843Z,22.42
2017-01-26T18:17:44.708Z,22.49
2017-01-26T18:18:05.637Z,22.52
2017-01-26T18:18:24.927Z,22.47
2017-01-26T18:18:45.491Z,22.59
2017-01-26T18:19:05.970Z,22.46
2017-01-26T18:19:26.519Z,22.54
2017-01-26T18:19:47.076Z,22.54
2017-01-26T18:20:07.537Z,22.57
2017-01-26T18:20:27.984Z,22.59
2017-01-26T18:20:48.506Z,22.68
2017-01-26T18:21:08.959Z,22.62
2017-01-26T18:21:28.841Z,22.59
2017-01-26T18:21:49.342Z,22.63
2017-01-26T18:22:09.803Z,22.63
2017-01-26T18:22:29.654Z,22.62
2017-01-26T18:22:50.614Z,22.65
2017-01-26T18:23:11.091Z,22.69
2017-01-26T18:23:31.623Z,22.6
2017-01-26T18:23:51.465Z,22.57
2017-01-26T18:24:11.296Z,22.57
2017-01-26T18:24:31.793Z,22.53
2017-01-26T18:24:52.358Z,22.57
2017-01-26T18:25:11.567Z,22.62
2017-01-26T18:25:32.004Z,22.54
2017-01-26T18:25:52.499Z,22.57
2017-01-26T18:26:12.925Z,22.59
2017-01-26T18:26:32.730Z,22.57
2017-01-26T18:26:53.019Z,22.59
2017-01-26T18:27:13.523Z,22.52
2017-01-26T18:27:33.449Z,22.49
2017-01-26T18:27:55.038Z,22.56
2017-01-26T18:28:14.980Z,22.53
2017-01-26T18:28:34.936Z,22.53
2017-01-26T18:28:55.582Z,22.62
2017-01-26T18:29:15.507Z,22.57
2017-01-26T18:29:35.380Z,22.67
2017-01-26T18:29:55.986Z,22.71
2017-01-26T18:30:15.997Z,22.71
2017-01-26T18:30:37.040Z,22.77
2017-01-26T18:30:56.905Z,22.77
2017-01-26T18:31:17.462Z,22.81
2017-01-26T18:31:38.311Z,22.74
2017-01-26T18:31:58.850Z,22.84
2017-01-26T18:32:19.871Z,22.78
2017-01-26T18:32:40.424Z,22.86
2017-01-26T18:33:00.918Z,22.87
2017-01-26T18:33:21.435Z,22.69
2017-01-26T18:33:42.071Z,22.77
2017-01-26T18:34:01.898Z,22.75
2017-01-26T18:34:22.214Z,22.78
2017-01-26T18:34:42.923Z,22.78
2017-01-26T18:35:03.399Z,22.87
2017-01-26T18:35:23.870Z,22.75
2017-01-26T18:35:45.163Z,22.81
2017-01-26T18:36:04.979Z,22.89
2017-01-26T18:36:39.265Z,22.9
2017-01-26T18:37:00.135Z,22.93
2017-01-26T18:37:19.408Z,22.94
2017-01-26T18:37:39.857Z,22.89
2017-01-26T18:38:00.316Z,23
2017-01-26T18:38:20.801Z,23.07
2017-01-26T18:38:41.306Z,23.04
2017-01-26T18:39:01.811Z,23.02
2017-01-26T18:39:21.633Z,23.08
2017-01-26T18:39:41.496Z,23.07
2017-01-26T18:40:01.954Z,23.07
2017-01-26T18:40:21.907Z,23.09
2017-01-26T18:40:42.432Z,23.02
2017-01-26T18:41:02.306Z,23.09
2017-01-26T18:41:22.791Z,23.09
2017-01-26T18:41:43.302Z,23.12
2017-01-26T18:42:03.175Z,23.11
2017-01-26T18:42:22.985Z,23.07
2017-01-26T18:42:42.748Z,23.11
2017-01-26T18:43:04.000Z,23.14
2017-01-26T18:43:24.441Z,23.09
2017-01-26T18:43:44.923Z,23.11
2017-01-26T18:44:05.425Z,23.11
2017-01-26T18:44:26.442Z,23.15
2017-01-26T18:44:47.102Z,23.23
2017-01-26T18:45:07.588Z,23.22
2017-01-26T18:45:28.123Z,23.23
2017-01-26T18:45:47.988Z,23.31
2017-01-26T18:46:08.443Z,23.27
2017-01-26T18:46:28.273Z,23.23
2017-01-26T18:46:48.340Z,23.22
2017-01-26T18:47:08.127Z,23.24
2017-01-26T18:47:27.981Z,23.27
2017-01-26T18:47:48.561Z,23.2
2017-01-26T18:48:09.096Z,23.24
2017-01-26T18:48:29.608Z,23.27
2017-01-26T18:48:49.461Z,23.38
2017-01-26T18:49:09.912Z,23.34
2017-01-26T18:49:30.376Z,23.34
2017-01-26T18:49:50.868Z,23.34
2017-01-26T18:50:11.366Z,23.37
2017-01-26T18:50:31.975Z,23.45
2017-01-26T18:50:51.787Z,23.31
2017-01-26T18:51:11.604Z,23.35
2017-01-26T18:51:31.417Z,23.24
2017-01-26T18:51:51.279Z,23.31
2017-01-26T18:52:11.043Z,23.18
2017-01-26T18:52:31.505Z,23.23
2017-01-26T18:52:51.901Z,23.22
2017-01-26T18:53:12.455Z,23.29
2017-01-26T18:53:32.252Z,23.33
2017-01-26T18:53:52.783Z,23.34
2017-01-26T18:54:13.292Z,23.23
2017-01-26T18:54:32.606Z,23.27
2017-01-26T18:54:52.497Z,23.22
2017-01-26T18:55:13.158Z,23.23
2017-01-26T18:55:33.556Z,23.22
2017-01-26T18:55:54.047Z,23.26
2017-01-26T18:56:14.651Z,23.23
2017-01-26T18:56:34.506Z,23.27
2017-01-26T18:56:54.960Z,23.33
2017-01-26T18:57:15.824Z,23.31
2017-01-26T18:57:36.239Z,23.31
2017-01-26T18:57:56.973Z,23.37
2017-01-26T18:58:16.519Z,23.37
2017-01-26T18:58:37.903Z,23.34
2017-01-26T18:58:58.374Z,23.35
2017-01-26T18:59:18.414Z,23.34
2017-01-26T18:59:38.937Z,23.37
2017-01-26T18:59:59.697Z,23.48
2017-01-26T19:00:18.823Z,23.4
2017-01-26T19:00:39.538Z,23.38
2017-01-26T19:00:59.316Z,23.46
2017-01-26T19:01:19.139Z,23.4
2017-01-26T19:01:39.660Z,23.42
2017-01-26T19:02:00.141Z,23.37
2017-01-26T19:02:19.976Z,23.43
2017-01-26T19:02:40.440Z,23.33
2017-01-26T19:03:00.882Z,23.23
2017-01-26T19:03:20.705Z,23.29
2017-01-26T19:03:41.221Z,23.24
2017-01-26T19:04:01.734Z,23.2
2017-01-26T19:04:22.170Z,23.26
2017-01-26T19:04:43.079Z,23.11
2017-01-26T19:05:03.597Z,23.12
2017-01-26T19:05:37.100Z,23.09
2017-01-26T19:05:57.513Z,23.04
2017-01-26T19:06:17.972Z,23.17
2017-01-26T19:06:38.440Z,23.07
2017-01-26T19:06:58.878Z,23.12
2017-01-26T19:07:18.656Z,23.11
2017-01-26T19:07:39.159Z,23.12
2017-01-26T19:07:59.711Z,23.12
2017-01-26T19:08:19.664Z,23.07
2017-01-26T19:08:40.080Z,23.08
2017-01-26T19:08:59.887Z,23.09
2017-01-26T19:09:19.772Z,23.2
2017-01-26T19:09:40.260Z,23.18
2017-01-26T19:10:00.013Z,23.17
2017-01-26T19:10:20.873Z,23.11
2017-01-26T19:10:41.322Z,23.11
2017-01-26T19:11:02.225Z,23.04
2017-01-26T19:11:23.632Z,23.12
2017-01-26T19:11:44.678Z,23.07
2017-01-26T19:12:05.876Z,23.08
2017-01-26T19:12:26.410Z,23.15
2017-01-26T19:12:46.943Z,23.17
2017-01-26T19:13:07.470Z,23.17
2017-01-26T19:13:28.002Z,23.11
2017-01-26T19:13:48.505Z,23.22
2017-01-26T19:14:08.443Z,23.22